createdAt,value
2023-08-12T00:01:32.288Z,100.00
2023-08-12T00:04:00.803Z,100.00
2023-08-12T00:06:29.464Z,100.00
2023-08-12T00:08:59.243Z,100.00
2023-08-12T00:11:27.968Z,100.00
2023-08-12T00:13:56.867Z,100.00
2023-08-12T00:16:27.511Z,100.00
2023-08-12T00:18:56.366Z,100.00
2023-08-12T00:21:30.583Z,100.00
2023-08-12T00:24:00.627Z,100.00
2023-08-12T00:26:29.796Z,100.00
2023-08-12T00:28:58.631Z,100.00
2023-08-12T00:31:29.016Z,100.00
2023-08-12T00:33:58.694Z,100.00
2023-08-12T00:36:27.542Z,100.00
2023-08-12T00:39:00.551Z,100.00
2023-08-12T00:41:30.043Z,100.00
2023-08-12T00:43:59.178Z,100.00
2023-08-12T00:46:28.080Z,100.00
2023-08-12T00:48:57.042Z,100.00
2023-08-12T00:51:29.844Z,100.00
2023-08-12T00:54:01.398Z,100.00
2023-08-12T00:56:31.527Z,100.00
2023-08-12T00:59:02.418Z,100.00
2023-08-12T01:01:33.734Z,100.00
2023-08-12T01:04:02.371Z,100.00
2023-08-12T01:06:30.935Z,100.00
2023-08-12T01:08:59.539Z,100.00
2023-08-12T01:11:38.843Z,100.00
2023-08-12T01:14:13.456Z,100.00
2023-08-12T01:16:47.020Z,100.00
2023-08-12T01:19:26.656Z,100.00
2023-08-12T01:21:56.398Z,100.00
2023-08-12T01:24:28.115Z,100.00
2023-08-12T01:26:56.837Z,100.00
2023-08-12T01:29:25.384Z,100.00
2023-08-12T01:31:57.899Z,100.00
2023-08-12T01:34:35.189Z,100.00
2023-08-12T01:37:06.343Z,100.00
2023-08-12T01:39:37.856Z,100.00
2023-08-12T01:42:07.988Z,100.00
2023-08-12T01:44:36.685Z,100.00
2023-08-12T01:47:05.707Z,100.00
2023-08-12T01:49:37.257Z,100.00
2023-08-12T01:52:06.276Z,100.00
2023-08-12T01:54:36.406Z,100.00
2023-08-12T01:57:07.372Z,100.00
2023-08-12T01:59:36.643Z,100.00
2023-08-12T02:02:06.002Z,100.00
2023-08-12T02:04:37.885Z,100.00
2023-08-12T02:07:07.187Z,100.00
2023-08-12T02:09:37.046Z,100.00
2023-08-12T02:12:06.622Z,100.00
2023-08-12T02:14:35.366Z,100.00
2023-08-12T02:17:04.037Z,100.00
2023-08-12T02:19:32.910Z,100.00
2023-08-12T02:22:01.685Z,100.00
2023-08-12T02:24:30.711Z,100.00
2023-08-12T02:27:03.165Z,100.00
2023-08-12T02:29:31.649Z,100.00
2023-08-12T02:32:00.116Z,100.00
2023-08-12T02:34:28.889Z,100.00
2023-08-12T02:37:00.507Z,100.00
2023-08-12T02:39:29.258Z,100.00
2023-08-12T02:41:58.074Z,100.00
2023-08-12T02:44:28.925Z,100.00
2023-08-12T02:46:57.801Z,100.00
2023-08-12T02:49:26.074Z,100.00
2023-08-12T02:51:55.437Z,100.00
2023-08-12T02:54:23.962Z,100.00
2023-08-12T02:56:53.006Z,100.00
2023-08-12T02:59:21.762Z,100.00
2023-08-12T03:01:52.049Z,100.00
2023-08-12T03:04:20.785Z,100.00
2023-08-12T03:06:49.975Z,100.00
2023-08-12T03:09:21.240Z,100.00
2023-08-12T03:11:54.571Z,100.00
2023-08-12T03:14:23.395Z,100.00
2023-08-12T03:16:53.652Z,100.00
2023-08-12T03:19:22.587Z,100.00
2023-08-12T03:21:51.309Z,100.00
2023-08-12T03:24:19.993Z,100.00
2023-08-12T03:26:52.770Z,100.00
2023-08-12T03:29:21.698Z,100.00
2023-08-12T03:31:55.031Z,100.00
2023-08-12T03:34:25.307Z,100.00
2023-08-12T03:36:54.081Z,100.00
2023-08-12T03:39:22.979Z,100.00
2023-08-12T03:41:54.120Z,100.00
2023-08-12T03:44:23.427Z,100.00
2023-08-12T03:46:55.154Z,100.00
2023-08-12T03:49:24.827Z,100.00
2023-08-12T03:51:55.998Z,100.00
2023-08-12T03:54:24.745Z,100.00
2023-08-12T03:56:53.613Z,100.00
2023-08-12T03:59:23.020Z,100.00
2023-08-12T04:01:51.784Z,100.00
2023-08-12T04:04:22.612Z,100.00
2023-08-12T04:06:53.358Z,100.00
2023-08-12T04:09:22.917Z,100.00
2023-08-12T04:11:52.082Z,100.00
2023-08-12T04:14:20.782Z,100.00
2023-08-12T04:16:49.324Z,100.00
2023-08-12T04:19:21.494Z,100.00
2023-08-12T04:21:50.485Z,100.00
2023-08-12T04:24:20.464Z,100.00
2023-08-12T04:26:50.081Z,100.00
2023-08-12T04:29:19.425Z,100.00
2023-08-12T04:31:51.525Z,100.00
2023-08-12T04:34:21.764Z,100.00
2023-08-12T04:36:51.042Z,100.00
2023-08-12T04:39:19.782Z,100.00
2023-08-12T04:41:48.735Z,100.00
2023-08-12T04:44:18.238Z,100.00
2023-08-12T04:46:47.850Z,100.00
2023-08-12T04:49:18.330Z,100.00
2023-08-12T04:51:48.619Z,100.00
2023-08-12T04:54:17.357Z,100.00
2023-08-12T04:56:45.999Z,100.00
2023-08-12T04:59:15.057Z,100.00
2023-08-12T05:01:58.583Z,100.00
2023-08-12T05:04:34.907Z,100.00
2023-08-12T05:07:06.893Z,100.00
2023-08-12T05:09:36.493Z,100.00
2023-08-12T05:12:05.653Z,100.00
2023-08-12T05:14:34.535Z,100.00
2023-08-12T05:17:04.068Z,100.00
2023-08-12T05:19:33.398Z,100.00
2023-08-12T05:22:07.017Z,100.00
2023-08-12T05:24:35.964Z,100.00
2023-08-12T05:27:05.295Z,100.00
2023-08-12T05:29:33.966Z,100.00
2023-08-12T05:32:03.453Z,100.00
2023-08-12T05:34:32.872Z,100.00
2023-08-12T05:37:01.937Z,100.00
2023-08-12T05:39:32.113Z,100.00
2023-08-12T05:42:01.538Z,100.00
2023-08-12T05:44:30.059Z,100.00
2023-08-12T05:46:58.431Z,100.00
2023-08-12T05:49:27.147Z,100.00
2023-08-12T05:51:55.940Z,100.00
2023-08-12T05:54:24.876Z,100.00
2023-08-12T05:56:55.321Z,100.00
2023-08-12T05:59:23.953Z,100.00
2023-08-12T06:01:52.543Z,100.00
2023-08-12T06:04:21.064Z,100.00
2023-08-12T06:06:49.768Z,100.00
2023-08-12T06:09:18.392Z,100.00
2023-08-12T06:11:46.976Z,100.00
2023-08-12T06:14:17.165Z,100.00
2023-08-12T06:16:44.755Z,100.00
2023-08-12T06:19:13.258Z,100.00
2023-08-12T06:21:42.119Z,100.00
2023-08-12T06:24:11.003Z,100.00
2023-08-12T06:26:39.652Z,100.00
2023-08-12T06:29:08.262Z,100.00
2023-08-12T06:31:38.679Z,100.00
2023-08-12T06:34:08.381Z,100.00
2023-08-12T06:36:37.718Z,100.00
2023-08-12T06:39:07.477Z,100.00
2023-08-12T06:41:36.173Z,100.00
2023-08-12T06:44:06.009Z,100.00
2023-08-12T06:46:35.401Z,100.00
2023-08-12T06:49:06.135Z,100.00
2023-08-12T06:51:37.832Z,100.00
2023-08-12T06:54:07.322Z,100.00
2023-08-12T06:56:36.042Z,99.25
2023-08-12T06:59:04.880Z,98.41
2023-08-12T07:01:33.534Z,97.81
2023-08-12T07:04:02.956Z,96.88
2023-08-12T07:06:33.324Z,93.33
2023-08-12T07:09:01.934Z,92.21
2023-08-12T07:11:33.245Z,91.92
2023-08-12T07:14:02.398Z,91.69
2023-08-12T07:16:31.803Z,91.20
2023-08-12T07:19:00.569Z,89.63
2023-08-12T07:21:29.209Z,87.95
2023-08-12T07:24:03.888Z,87.16
2023-08-12T07:26:33.080Z,87.97
2023-08-12T07:29:02.618Z,87.05
2023-08-12T07:31:31.894Z,85.91
2023-08-12T07:34:01.193Z,85.02
2023-08-12T07:36:30.286Z,83.66
2023-08-12T07:39:00.621Z,84.30
2023-08-12T07:41:29.432Z,82.00
2023-08-12T07:43:58.531Z,80.20
2023-08-12T07:46:27.592Z,81.82
2023-08-12T07:48:56.252Z,81.69
2023-08-12T07:51:25.205Z,80.06
2023-08-12T07:53:54.089Z,77.92
2023-08-12T07:56:24.925Z,77.86
2023-08-12T07:58:53.615Z,78.15
2023-08-12T08:01:23.036Z,78.17
2023-08-12T08:03:52.484Z,79.61
2023-08-12T08:06:21.325Z,78.82
2023-08-12T08:08:49.968Z,79.05
2023-08-12T08:11:18.642Z,76.56
2023-08-12T08:13:48.623Z,72.27
2023-08-12T08:16:17.770Z,74.37
2023-08-12T08:18:46.977Z,73.42
2023-08-12T08:21:16.130Z,70.25
2023-08-12T08:23:46.029Z,69.42
2023-08-12T08:26:16.931Z,68.53
2023-08-12T08:28:46.238Z,68.98
2023-08-12T08:31:16.814Z,66.08
2023-08-12T08:33:45.818Z,67.70
2023-08-12T08:36:14.823Z,69.32
2023-08-12T08:38:43.960Z,66.81
2023-08-12T08:41:13.184Z,66.46
2023-08-12T08:43:45.186Z,64.47
2023-08-12T08:46:18.078Z,65.37
2023-08-12T08:48:48.080Z,66.91
2023-08-12T08:51:17.339Z,67.22
2023-08-12T08:53:46.488Z,68.37
2023-08-12T08:56:16.279Z,67.04
2023-08-12T08:58:45.206Z,65.96
2023-08-12T09:01:16.900Z,66.05
2023-08-12T09:03:46.093Z,63.84
2023-08-12T09:06:14.970Z,63.82
2023-08-12T09:08:47.574Z,62.92
2023-08-12T09:11:18.133Z,61.94
2023-08-12T09:13:49.324Z,62.45
2023-08-12T09:16:19.841Z,61.49
2023-08-12T09:18:51.018Z,62.56
2023-08-12T09:21:20.035Z,62.73
2023-08-12T09:23:49.161Z,61.14
2023-08-12T09:26:19.479Z,59.25
2023-08-12T09:28:49.359Z,61.11
2023-08-12T09:31:28.134Z,58.58
2023-08-12T09:34:01.013Z,59.79
2023-08-12T09:36:36.769Z,54.36
2023-08-12T09:39:10.385Z,55.27
2023-08-12T09:41:40.849Z,57.39
2023-08-12T09:44:09.431Z,56.53
2023-08-12T09:46:40.612Z,59.79
2023-08-12T09:49:09.635Z,57.48
2023-08-12T09:51:41.083Z,59.11
2023-08-12T09:54:11.583Z,58.25
2023-08-12T09:56:43.149Z,56.46
2023-08-12T09:59:13.600Z,56.89
2023-08-12T10:01:45.812Z,57.02
2023-08-12T10:04:19.558Z,59.02
2023-08-12T10:06:50.560Z,55.54
2023-08-12T10:09:20.297Z,46.93
2023-08-12T10:11:49.093Z,55.29
2023-08-12T10:14:18.640Z,52.43
2023-08-12T10:16:49.083Z,56.05
2023-08-12T10:19:19.341Z,54.33
2023-08-12T10:21:49.879Z,53.98
2023-08-12T10:24:19.333Z,52.72
2023-08-12T10:26:48.876Z,52.95
2023-08-12T10:29:18.111Z,54.05
2023-08-12T10:31:49.700Z,53.88
2023-08-12T10:34:22.943Z,51.13
2023-08-12T10:37:02.847Z,49.68
2023-08-12T10:39:35.295Z,49.85
2023-08-12T10:42:04.143Z,50.76
2023-08-12T10:44:41.908Z,47.73
2023-08-12T10:47:13.386Z,49.35
2023-08-12T10:49:46.108Z,48.28
2023-08-12T10:52:29.809Z,43.53
2023-08-12T10:55:19.056Z,46.76
2023-08-12T10:57:48.439Z,50.29
2023-08-12T11:00:23.079Z,47.78
2023-08-12T11:02:54.171Z,49.26
2023-08-12T11:05:23.407Z,48.07
2023-08-12T11:07:59.598Z,44.76
2023-08-12T11:10:31.931Z,48.01
2023-08-12T11:13:03.793Z,47.36
2023-08-12T11:15:34.916Z,46.90
2023-08-12T11:18:07.099Z,46.08
2023-08-12T11:20:37.385Z,46.49
2023-08-12T11:23:10.826Z,45.15
2023-08-12T11:25:40.859Z,46.42
2023-08-12T11:28:13.942Z,45.98
2023-08-12T11:30:44.921Z,47.03
2023-08-12T11:33:14.989Z,46.29
2023-08-12T11:35:43.503Z,45.58
2023-08-12T11:38:14.521Z,44.18
2023-08-12T11:40:43.052Z,45.70
2023-08-12T11:43:11.565Z,45.78
2023-08-12T11:45:44.388Z,44.35
2023-08-12T11:48:14.455Z,43.26
2023-08-12T11:50:45.237Z,44.74
2023-08-12T11:53:13.788Z,43.68
2023-08-12T11:55:42.409Z,43.72
2023-08-12T11:58:11.223Z,44.67
2023-08-12T12:00:40.038Z,43.84
2023-08-12T12:03:09.186Z,43.20
2023-08-12T12:05:39.036Z,43.30
2023-08-12T12:08:10.189Z,42.99
2023-08-12T12:10:38.519Z,43.87
2023-08-12T12:13:10.217Z,42.78
2023-08-12T12:15:41.172Z,41.81
2023-08-12T12:18:12.326Z,42.57
2023-08-12T12:20:57.777Z,41.63
2023-08-12T12:23:30.258Z,43.30
2023-08-12T12:26:02.838Z,42.39
2023-08-12T12:28:34.179Z,43.19
2023-08-12T12:31:03.089Z,43.62
2023-08-12T12:33:31.626Z,43.03
2023-08-12T12:36:04.081Z,43.72
2023-08-12T12:38:34.388Z,41.94
2023-08-12T12:41:02.912Z,42.98
2023-08-12T12:43:31.293Z,43.89
2023-08-12T12:45:59.726Z,43.46
2023-08-12T12:48:29.847Z,43.32
2023-08-12T12:50:58.909Z,43.00
2023-08-12T12:53:28.663Z,42.42
2023-08-12T12:56:05.062Z,43.82
2023-08-12T12:58:34.337Z,41.94
2023-08-12T13:01:03.074Z,41.64
2023-08-12T13:03:32.576Z,41.78
2023-08-12T13:06:01.980Z,41.77
2023-08-12T13:08:32.954Z,41.23
2023-08-12T13:11:01.594Z,41.75
2023-08-12T13:13:30.368Z,41.56
2023-08-12T13:15:59.259Z,41.06
2023-08-12T13:18:27.613Z,42.48
2023-08-12T13:20:56.422Z,42.03
2023-08-12T13:23:24.742Z,43.25
2023-08-12T13:25:55.169Z,42.26
2023-08-12T13:28:23.775Z,41.01
2023-08-12T13:30:52.066Z,41.75
2023-08-12T13:33:20.772Z,42.42
2023-08-12T13:35:49.468Z,42.83
2023-08-12T13:38:18.277Z,41.58
2023-08-12T13:40:46.620Z,43.22
2023-08-12T13:43:17.183Z,42.54
2023-08-12T13:45:45.579Z,43.34
2023-08-12T13:48:14.079Z,42.45
2023-08-12T13:50:43.244Z,43.87
2023-08-12T13:53:14.204Z,42.22
2023-08-12T13:55:43.348Z,41.94
2023-08-12T13:58:15.692Z,41.18
2023-08-12T14:00:45.391Z,41.79
2023-08-12T14:03:13.662Z,41.30
2023-08-12T14:05:42.348Z,42.50
2023-08-12T14:08:10.602Z,41.51
2023-08-12T14:10:38.834Z,41.84
2023-08-12T14:13:08.048Z,41.48
2023-08-12T14:15:38.083Z,41.22
2023-08-12T14:18:08.206Z,41.80
2023-08-12T14:20:36.633Z,41.70
2023-08-12T14:23:05.543Z,41.92
2023-08-12T14:25:33.980Z,43.04
2023-08-12T14:28:02.499Z,41.53
2023-08-12T14:30:30.765Z,42.48
2023-08-12T14:33:00.298Z,40.81
2023-08-12T14:35:30.819Z,41.94
2023-08-12T14:37:59.030Z,42.22
2023-08-12T14:40:28.890Z,40.92
2023-08-12T14:42:57.699Z,42.39
2023-08-12T14:45:26.135Z,42.82
2023-08-12T14:47:54.513Z,41.93
2023-08-12T14:50:23.191Z,43.23
2023-08-12T14:52:52.901Z,44.16
2023-08-12T14:55:22.404Z,42.81
2023-08-12T14:57:51.604Z,42.82
2023-08-12T15:00:20.999Z,41.89
2023-08-12T15:02:49.456Z,43.10
2023-08-12T15:05:18.933Z,43.65
2023-08-12T15:07:47.203Z,43.56
2023-08-12T15:10:16.935Z,44.45
2023-08-12T15:12:45.604Z,44.02
2023-08-12T15:15:14.820Z,43.83
2023-08-12T15:17:43.099Z,45.40
2023-08-12T15:20:12.454Z,45.61
2023-08-12T15:22:40.645Z,45.80
2023-08-12T15:25:09.929Z,46.02
2023-08-12T15:27:39.668Z,45.04
2023-08-12T15:30:09.281Z,45.42
2023-08-12T15:32:41.492Z,45.51
2023-08-12T15:35:11.958Z,43.85
2023-08-12T15:37:42.161Z,44.76
2023-08-12T15:40:11.503Z,46.36
2023-08-12T15:42:44.758Z,45.89
2023-08-12T15:45:14.535Z,46.76
2023-08-12T15:47:43.008Z,46.98
2023-08-12T15:50:13.545Z,48.11
2023-08-12T15:52:41.939Z,47.98
2023-08-12T15:55:10.637Z,48.17
2023-08-12T15:57:38.937Z,48.30
2023-08-12T16:00:11.905Z,48.76
2023-08-12T16:02:41.868Z,48.86
2023-08-12T16:05:10.895Z,49.32
2023-08-12T16:07:41.175Z,47.92
2023-08-12T16:10:10.624Z,48.80
2023-08-12T16:12:39.094Z,49.80
2023-08-12T16:15:09.761Z,49.19
2023-08-12T16:17:38.088Z,50.00
2023-08-12T16:20:09.107Z,50.14
2023-08-12T16:22:37.403Z,50.44
2023-08-12T16:25:06.579Z,51.19
2023-08-12T16:27:35.021Z,51.48
2023-08-12T16:30:03.413Z,51.39
2023-08-12T16:32:33.209Z,52.32
2023-08-12T16:35:01.966Z,51.66
2023-08-12T16:37:30.405Z,52.59
2023-08-12T16:39:59.356Z,53.66
2023-08-12T16:42:28.268Z,54.04
2023-08-12T16:44:56.871Z,54.24
2023-08-12T16:47:25.709Z,56.43
2023-08-12T16:49:55.464Z,58.55
2023-08-12T16:52:25.949Z,60.29
2023-08-12T16:54:54.245Z,60.58
2023-08-12T16:57:22.680Z,61.19
2023-08-12T16:59:52.175Z,62.02
2023-08-12T17:02:20.673Z,62.93
2023-08-12T17:04:49.213Z,63.67
2023-08-12T17:07:22.376Z,64.40
2023-08-12T17:09:50.674Z,65.57
2023-08-12T17:12:19.227Z,66.45
2023-08-12T17:14:48.466Z,66.99
2023-08-12T17:17:17.132Z,67.32
2023-08-12T17:19:45.497Z,67.77
2023-08-12T17:22:14.237Z,68.60
2023-08-12T17:24:44.721Z,69.19
2023-08-12T17:27:13.056Z,69.73
2023-08-12T17:29:41.452Z,70.79
2023-08-12T17:32:09.667Z,71.20
2023-08-12T17:34:38.557Z,71.41
2023-08-12T17:37:06.902Z,72.40
2023-08-12T17:39:36.462Z,73.30
2023-08-12T17:42:06.459Z,74.03
2023-08-12T17:44:35.382Z,74.61
2023-08-12T17:47:03.816Z,75.05
2023-08-12T17:49:32.658Z,76.30
2023-08-12T17:52:02.375Z,76.82
2023-08-12T17:54:31.161Z,77.38
2023-08-12T17:56:59.294Z,78.22
2023-08-12T17:59:28.898Z,78.96
2023-08-12T18:01:57.339Z,79.29
2023-08-12T18:04:26.742Z,79.74
2023-08-12T18:06:55.189Z,80.52
2023-08-12T18:09:24.110Z,80.61
2023-08-12T18:11:52.496Z,80.88
2023-08-12T18:14:22.576Z,81.10
2023-08-12T18:16:52.421Z,81.33
2023-08-12T18:19:23.802Z,81.69
2023-08-12T18:21:52.073Z,82.25
2023-08-12T18:24:20.217Z,82.39
2023-08-12T18:26:48.496Z,82.47
2023-08-12T18:29:17.254Z,83.18
2023-08-12T18:31:45.626Z,83.53
2023-08-12T18:34:15.146Z,83.98
2023-08-12T18:36:43.824Z,84.06
2023-08-12T18:39:12.227Z,84.53
2023-08-12T18:41:40.907Z,84.83
2023-08-12T18:44:09.523Z,85.25
2023-08-12T18:46:38.226Z,85.58
2023-08-12T18:49:06.967Z,86.24
2023-08-12T18:51:36.650Z,86.37
2023-08-12T18:54:05.772Z,86.32
2023-08-12T18:56:34.365Z,86.35
2023-08-12T18:59:02.628Z,86.22
2023-08-12T19:01:30.915Z,85.74
2023-08-12T19:03:59.456Z,86.00
2023-08-12T19:06:27.971Z,86.78
2023-08-12T19:08:57.856Z,87.46
2023-08-12T19:11:26.360Z,87.88
2023-08-12T19:13:54.833Z,88.29
2023-08-12T19:16:23.261Z,88.98
2023-08-12T19:18:52.150Z,89.18
2023-08-12T19:21:20.829Z,89.01
2023-08-12T19:23:51.449Z,89.28
2023-08-12T19:26:25.142Z,90.10
2023-08-12T19:28:53.700Z,90.13
2023-08-12T19:31:21.981Z,90.51
2023-08-12T19:33:51.053Z,90.73
2023-08-12T19:36:19.391Z,91.06
2023-08-12T19:38:47.950Z,91.69
2023-08-12T19:41:17.373Z,92.09
2023-08-12T19:43:47.768Z,92.70
2023-08-12T19:46:16.915Z,93.18
2023-08-12T19:48:55.809Z,93.17
2023-08-12T19:51:24.163Z,93.16
2023-08-12T19:53:52.929Z,93.31
2023-08-12T19:56:21.162Z,93.33
2023-08-12T19:58:51.107Z,93.74
2023-08-12T20:01:19.914Z,94.22
2023-08-12T20:03:48.570Z,94.41
2023-08-12T20:06:17.503Z,94.87
2023-08-12T20:08:46.120Z,94.63
2023-08-12T20:11:14.621Z,95.53
2023-08-12T20:13:43.089Z,95.83
2023-08-12T20:16:12.796Z,95.93
2023-08-12T20:18:41.619Z,96.04
2023-08-12T20:21:09.935Z,96.45
2023-08-12T20:23:38.300Z,96.53
2023-08-12T20:26:06.812Z,96.53
2023-08-12T20:28:35.336Z,95.94
2023-08-12T20:31:04.961Z,96.07
2023-08-12T20:33:35.549Z,95.71
2023-08-12T20:36:04.168Z,96.07
2023-08-12T20:38:33.000Z,96.13
2023-08-12T20:41:02.796Z,96.41
2023-08-12T20:43:31.282Z,96.94
2023-08-12T20:45:59.839Z,97.32
2023-08-12T20:48:28.622Z,98.02
2023-08-12T20:51:01.949Z,97.98
2023-08-12T20:53:32.453Z,98.77
2023-08-12T20:56:01.245Z,98.91
2023-08-12T20:58:29.885Z,98.78
2023-08-12T21:00:59.067Z,98.83
2023-08-12T21:03:27.933Z,99.07
2023-08-12T21:05:56.410Z,99.20
2023-08-12T21:08:27.429Z,99.67
2023-08-12T21:10:56.031Z,99.86
2023-08-12T21:13:24.364Z,100.00
2023-08-12T21:15:53.218Z,100.00
2023-08-12T21:18:21.898Z,100.00
2023-08-12T21:20:50.405Z,100.00
2023-08-12T21:23:21.119Z,100.00
2023-08-12T21:25:51.163Z,100.00
2023-08-12T21:28:20.025Z,100.00
2023-08-12T21:30:51.808Z,100.00
2023-08-12T21:33:20.843Z,100.00
2023-08-12T21:35:50.159Z,100.00
2023-08-12T21:38:19.306Z,100.00
2023-08-12T21:40:48.187Z,100.00
2023-08-12T21:43:18.656Z,100.00
2023-08-12T21:45:47.941Z,100.00
2023-08-12T21:48:16.851Z,100.00
2023-08-12T21:50:45.791Z,100.00
2023-08-12T21:53:14.376Z,100.00
2023-08-12T21:55:43.810Z,100.00
2023-08-12T21:58:12.104Z,100.00
2023-08-12T22:00:42.196Z,100.00
2023-08-12T22:03:11.067Z,100.00
2023-08-12T22:05:39.349Z,100.00
2023-08-12T22:08:08.262Z,100.00
2023-08-12T22:10:36.683Z,100.00
2023-08-12T22:13:06.972Z,100.00
2023-08-12T22:15:35.567Z,100.00
2023-08-12T22:18:06.025Z,100.00
2023-08-12T22:20:34.716Z,100.00
2023-08-12T22:23:03.914Z,100.00
2023-08-12T22:25:32.377Z,100.00
2023-08-12T22:28:00.912Z,100.00
2023-08-12T22:30:29.900Z,100.00
2023-08-12T22:32:58.652Z,100.00
2023-08-12T22:35:28.764Z,100.00
2023-08-12T22:37:57.207Z,100.00
2023-08-12T22:40:26.096Z,100.00
2023-08-12T22:42:56.785Z,100.00
2023-08-12T22:45:25.440Z,100.00
2023-08-12T22:47:54.218Z,100.00
2023-08-12T22:50:22.882Z,100.00
2023-08-12T22:52:52.682Z,100.00
2023-08-12T22:55:21.801Z,100.00
2023-08-12T22:57:50.918Z,100.00
2023-08-12T23:00:21.508Z,100.00
2023-08-12T23:02:50.175Z,100.00
2023-08-12T23:05:19.073Z,100.00
2023-08-12T23:07:47.802Z,100.00
2023-08-12T23:10:17.855Z,100.00
2023-08-12T23:12:46.321Z,100.00
2023-08-12T23:15:17.951Z,100.00
2023-08-12T23:17:46.811Z,100.00
2023-08-12T23:20:15.744Z,100.00
2023-08-12T23:22:44.556Z,100.00
2023-08-12T23:25:14.483Z,100.00
2023-08-12T23:27:44.986Z,100.00
2023-08-12T23:30:15.470Z,100.00
2023-08-12T23:32:45.790Z,100.00
2023-08-12T23:35:18.995Z,100.00
2023-08-12T23:37:48.042Z,100.00
2023-08-12T23:40:17.921Z,100.00
2023-08-12T23:42:47.671Z,100.00
2023-08-12T23:45:15.976Z,100.00
2023-08-12T23:47:44.442Z,100.00
2023-08-12T23:50:13.748Z,100.00
2023-08-12T23:52:42.448Z,100.00
2023-08-12T23:55:11.339Z,100.00
2023-08-12T23:57:40.069Z,100.00
